KLWV/LWV METAR and TAF weather

Enter ICAO airport designator
Station Type Date Time Source
KLWV METAR 2021/09/23 17:53 UTC NOAA

KLWV 231753Z AUTO 32018G26KT 10SM CLR 21/05 A3005 RMK AO2 PK WND 30030/1711 SLP174 T02060050 10211 20083 58004


Station Type Date Time Source
KLWV Decoded METAR 2021/09/23 17:53 UTC NOAA

LAWRENCEVILLE-VINCENNES INTERNATIONAL , IL, United States (KLWV) 38-46N 87-36W 131M
Sep 23, 2021 - 01:53 PM EDT / 2021.09.23 1753 UTC
Wind: from the NW (320 degrees) at 21 MPH (18 KT) gusting to 30 MPH (26 KT):0
Visibility: 10 mile(s):0
Sky conditions: clear
Temperature: 69.1 F (20.6 C)
Dew Point: 41.0 F (5.0 C)
Relative Humidity: 35%
Pressure (altimeter): 30.05 in. Hg (1017 hPa)
Pressure tendency: 0.01 inches (0.4 hPa) lower than three hours ago
ob: KLWV 231753Z AUTO 32018G26KT 10SM CLR 21/05 A3005 RMK AO2 PK WND 30030/1711 SLP174 T02060050 10211 20083 58004
cycle: 18

Station Type Date Time Source
KLWV TAF UTC NOAA

Error!

Example: see airport list